createdAt,value
2023-05-12T00:00:36.387Z,73.56
2023-05-12T00:03:04.531Z,74.25
2023-05-12T00:05:31.890Z,74.43
2023-05-12T00:07:58.976Z,74.10
2023-05-12T00:10:28.668Z,75.03
2023-05-12T00:12:55.893Z,75.12
2023-05-12T00:15:23.326Z,74.49
2023-05-12T00:17:52.530Z,74.35
2023-05-12T00:20:20.056Z,73.98
2023-05-12T00:22:47.410Z,74.28
2023-05-12T00:25:14.478Z,74.13
2023-05-12T00:27:41.556Z,72.50
2023-05-12T00:30:09.266Z,72.84
2023-05-12T00:32:36.545Z,73.08
2023-05-12T00:35:04.231Z,72.16
2023-05-12T00:37:31.714Z,70.75
2023-05-12T00:39:58.751Z,71.89
2023-05-12T00:42:25.769Z,71.17
2023-05-12T00:44:52.864Z,70.28
2023-05-12T00:47:20.759Z,70.82
2023-05-12T00:49:47.766Z,70.44
2023-05-12T00:52:14.833Z,69.72
2023-05-12T00:54:43.330Z,70.41
2023-05-12T00:57:11.680Z,70.58
2023-05-12T00:59:38.725Z,69.91
2023-05-12T01:02:07.458Z,70.25
2023-05-12T01:04:35.855Z,69.80
2023-05-12T01:07:05.816Z,69.97
2023-05-12T01:09:33.718Z,69.45
2023-05-12T01:12:01.115Z,68.36
2023-05-12T01:14:29.580Z,68.33
2023-05-12T01:17:00.259Z,67.54
2023-05-12T01:19:41.552Z,68.31
2023-05-12T01:22:12.442Z,67.07
2023-05-12T01:24:54.198Z,68.13
2023-05-12T01:27:24.105Z,67.80
2023-05-12T01:29:52.525Z,67.68
2023-05-12T01:32:20.799Z,67.83
2023-05-12T01:34:48.344Z,68.65
2023-05-12T01:37:16.202Z,68.19
2023-05-12T01:39:44.353Z,68.56
2023-05-12T01:42:17.679Z,68.42
2023-05-12T01:44:45.924Z,68.68
2023-05-12T01:47:16.008Z,69.09
2023-05-12T01:49:49.701Z,68.67
2023-05-12T01:52:17.457Z,68.30
2023-05-12T01:54:44.600Z,67.79
2023-05-12T01:57:12.891Z,67.26
2023-05-12T01:59:40.653Z,67.02
2023-05-12T02:02:08.323Z,65.82
2023-05-12T02:04:35.603Z,65.98
2023-05-12T02:07:02.691Z,65.42
2023-05-12T02:09:30.167Z,65.59
2023-05-12T02:12:02.398Z,64.89
2023-05-12T02:14:29.817Z,64.13
2023-05-12T02:16:57.635Z,64.89
2023-05-12T02:19:26.855Z,64.32
2023-05-12T02:22:00.771Z,64.09
2023-05-12T02:24:28.321Z,64.07
2023-05-12T02:26:55.513Z,64.09
2023-05-12T02:29:23.214Z,63.38
2023-05-12T02:31:50.391Z,63.67
2023-05-12T02:34:18.013Z,63.29
2023-05-12T02:36:45.103Z,64.00
2023-05-12T02:39:13.656Z,62.71
2023-05-12T02:41:41.324Z,63.29
2023-05-12T02:44:08.483Z,62.36
2023-05-12T02:46:36.068Z,63.31
2023-05-12T02:49:03.196Z,63.28
2023-05-12T02:51:31.948Z,63.10
2023-05-12T02:53:58.916Z,63.37
2023-05-12T02:56:26.208Z,62.36
2023-05-12T02:58:53.742Z,63.29
2023-05-12T03:01:21.332Z,63.48
2023-05-12T03:03:48.519Z,62.87
2023-05-12T03:06:15.881Z,64.51
2023-05-12T03:08:44.397Z,63.81
2023-05-12T03:11:11.790Z,64.47
2023-05-12T03:13:39.147Z,64.21
2023-05-12T03:16:07.139Z,63.57
2023-05-12T03:18:34.501Z,64.09
2023-05-12T03:21:01.626Z,63.62
2023-05-12T03:23:28.756Z,61.41
2023-05-12T03:25:55.823Z,61.62
2023-05-12T03:28:26.359Z,60.82
2023-05-12T03:30:54.260Z,60.06
2023-05-12T03:33:21.408Z,60.69
2023-05-12T03:35:50.860Z,60.67
2023-05-12T03:38:18.590Z,59.65
2023-05-12T03:40:52.611Z,59.73
2023-05-12T03:43:21.348Z,61.21
2023-05-12T03:45:49.335Z,65.49
2023-05-12T03:48:16.711Z,64.32
2023-05-12T03:50:43.728Z,64.08
2023-05-12T03:53:10.726Z,64.44
2023-05-12T03:55:37.844Z,63.87
2023-05-12T03:58:04.956Z,63.40
2023-05-12T04:00:33.037Z,62.56
2023-05-12T04:03:00.799Z,61.23
2023-05-12T04:05:27.866Z,61.39
2023-05-12T04:07:54.897Z,61.19
2023-05-12T04:10:22.418Z,59.51
2023-05-12T04:12:50.317Z,59.38
2023-05-12T04:15:17.838Z,58.79
2023-05-12T04:17:44.992Z,57.24
2023-05-12T04:20:13.071Z,55.60
2023-05-12T04:22:40.194Z,54.31
2023-05-12T04:25:07.632Z,53.21
2023-05-12T04:27:34.759Z,52.29
2023-05-12T04:30:01.926Z,51.85
2023-05-12T04:32:33.253Z,51.10
2023-05-12T04:35:00.913Z,50.57
2023-05-12T04:37:31.325Z,50.71
2023-05-12T04:39:58.341Z,50.03
2023-05-12T04:42:25.555Z,49.50
2023-05-12T04:44:52.705Z,48.71
2023-05-12T04:47:20.136Z,48.73
2023-05-12T04:49:47.286Z,48.10
2023-05-12T04:52:14.985Z,47.50
2023-05-12T04:54:41.999Z,46.47
2023-05-12T04:57:09.305Z,44.80
2023-05-12T04:59:36.911Z,44.23
2023-05-12T05:02:04.537Z,44.48
2023-05-12T05:04:31.592Z,42.42
2023-05-12T05:06:58.732Z,41.10
2023-05-12T05:09:26.020Z,41.18
2023-05-12T05:11:53.042Z,42.20
2023-05-12T05:14:20.805Z,42.12
2023-05-12T05:16:48.641Z,41.93
2023-05-12T05:19:22.870Z,43.07
2023-05-12T05:21:57.470Z,42.78
2023-05-12T05:24:24.645Z,41.71
2023-05-12T05:26:51.726Z,41.19
2023-05-12T05:29:19.507Z,40.68
2023-05-12T05:31:47.250Z,41.18
2023-05-12T05:34:14.856Z,40.40
2023-05-12T05:36:42.083Z,38.42
2023-05-12T05:39:10.610Z,37.66
2023-05-12T05:41:37.856Z,36.94
2023-05-12T05:44:05.940Z,36.06
2023-05-12T05:46:33.298Z,35.06
2023-05-12T05:49:00.498Z,35.51
2023-05-12T05:51:27.623Z,34.04
2023-05-12T05:53:54.689Z,34.78
2023-05-12T05:56:23.239Z,34.68
2023-05-12T05:58:50.926Z,35.20
2023-05-12T06:01:18.259Z,35.58
2023-05-12T06:03:45.667Z,37.03
2023-05-12T06:06:12.819Z,38.12
2023-05-12T06:08:39.899Z,38.04
2023-05-12T06:11:07.090Z,39.84
2023-05-12T06:13:34.163Z,40.64
2023-05-12T06:16:01.263Z,41.86
2023-05-12T06:18:28.419Z,42.04
2023-05-12T06:20:56.067Z,42.44
2023-05-12T06:23:23.264Z,42.35
2023-05-12T06:25:50.731Z,42.95
2023-05-12T06:28:17.888Z,44.21
2023-05-12T06:30:46.310Z,44.28
2023-05-12T06:33:13.349Z,44.70
2023-05-12T06:35:40.390Z,45.15
2023-05-12T06:38:07.599Z,45.79
2023-05-12T06:40:34.668Z,45.43
2023-05-12T06:43:01.697Z,45.01
2023-05-12T06:45:29.062Z,44.96
2023-05-12T06:47:59.718Z,42.92
2023-05-12T06:50:28.207Z,41.41
2023-05-12T06:52:55.205Z,39.98
2023-05-12T06:55:22.989Z,37.98
2023-05-12T06:57:55.754Z,37.38
2023-05-12T07:00:24.246Z,36.51
2023-05-12T07:02:52.220Z,36.73
2023-05-12T07:05:19.941Z,35.79
2023-05-12T07:07:47.180Z,35.53
2023-05-12T07:10:14.407Z,34.83
2023-05-12T07:12:41.585Z,34.72
2023-05-12T07:15:09.827Z,34.16
2023-05-12T07:17:37.036Z,33.92
2023-05-12T07:20:05.600Z,33.81
2023-05-12T07:22:32.887Z,33.30
2023-05-12T07:24:59.954Z,32.73
2023-05-12T07:27:27.141Z,32.11
2023-05-12T07:29:54.423Z,32.03
2023-05-12T07:32:21.520Z,31.03
2023-05-12T07:34:48.592Z,29.65
2023-05-12T07:37:15.712Z,30.68
2023-05-12T07:39:42.757Z,28.43
2023-05-12T07:42:09.769Z,27.98
2023-05-12T07:44:36.776Z,27.59
2023-05-12T07:47:03.968Z,25.59
2023-05-12T07:49:31.134Z,25.28
2023-05-12T07:51:58.252Z,24.48
2023-05-12T07:54:25.179Z,24.22
2023-05-12T07:56:52.494Z,23.67
2023-05-12T07:59:19.640Z,23.08
2023-05-12T08:01:46.752Z,22.53
2023-05-12T08:04:13.967Z,21.97
2023-05-12T08:06:41.239Z,21.90
2023-05-12T08:09:08.320Z,21.35
2023-05-12T08:11:35.392Z,21.35
2023-05-12T08:14:02.355Z,21.44
2023-05-12T08:16:29.514Z,19.85
2023-05-12T08:18:56.684Z,19.41
2023-05-12T08:21:24.106Z,19.75
2023-05-12T08:23:51.152Z,18.97
2023-05-12T08:26:18.301Z,18.50
2023-05-12T08:28:45.315Z,18.06
2023-05-12T08:31:12.674Z,18.61
2023-05-12T08:33:39.843Z,17.13
2023-05-12T08:36:07.072Z,16.31
2023-05-12T08:38:34.149Z,15.21
2023-05-12T08:41:39.873Z,14.75
2023-05-12T08:44:08.899Z,15.34
2023-05-12T08:46:36.169Z,14.94
2023-05-12T08:49:04.973Z,15.15
2023-05-12T08:51:33.393Z,15.04
2023-05-12T08:54:01.000Z,15.51
2023-05-12T08:58:59.577Z,15.51
2023-05-12T09:01:27.113Z,15.05
2023-05-12T09:03:54.307Z,15.30
2023-05-12T09:06:21.954Z,14.92
2023-05-12T09:08:49.268Z,14.92
2023-05-12T09:11:17.328Z,14.63
2023-05-12T09:14:18.810Z,14.79
2023-05-12T09:16:49.425Z,13.99
2023-05-12T09:19:22.667Z,14.33
2023-05-12T09:21:49.773Z,14.63
2023-05-12T09:24:16.773Z,14.78
2023-05-12T09:26:52.548Z,15.04
2023-05-12T09:29:30.043Z,15.32
2023-05-12T09:32:04.418Z,14.66
2023-05-12T09:34:38.516Z,14.36
2023-05-12T09:37:07.865Z,14.12
2023-05-12T09:39:36.316Z,14.52
2023-05-12T09:42:03.770Z,14.55
2023-05-12T09:44:32.542Z,14.63
2023-05-12T09:47:10.530Z,13.68
2023-05-12T09:49:38.507Z,13.98
2023-05-12T09:52:06.301Z,14.40
2023-05-12T09:54:34.615Z,14.57
2023-05-12T09:57:07.007Z,14.05
2023-05-12T09:59:36.264Z,14.08
2023-05-12T10:02:07.058Z,14.04
2023-05-12T10:04:53.240Z,13.81
2023-05-12T10:07:24.674Z,13.33
2023-05-12T10:09:52.909Z,13.49
2023-05-12T10:12:19.883Z,12.86
2023-05-12T10:14:48.512Z,12.94
2023-05-12T10:17:16.096Z,12.54
2023-05-12T10:19:44.699Z,13.07
2023-05-12T10:22:12.012Z,13.37
2023-05-12T10:24:41.098Z,13.71
2023-05-12T10:27:08.456Z,13.92
2023-05-12T10:29:37.790Z,14.89
2023-05-12T10:32:06.654Z,15.30
2023-05-12T10:34:37.125Z,15.94
2023-05-12T10:37:11.119Z,16.36
2023-05-12T10:39:47.838Z,16.40
2023-05-12T10:42:17.716Z,16.64
2023-05-12T10:44:54.722Z,15.37
2023-05-12T10:47:37.923Z,15.24
2023-05-12T10:50:05.760Z,15.74
2023-05-12T10:52:33.650Z,14.94
2023-05-12T10:55:02.276Z,14.84
2023-05-12T10:57:33.965Z,13.52
2023-05-12T11:00:02.858Z,13.43
2023-05-12T11:02:36.939Z,13.05
2023-05-12T11:05:17.448Z,12.97
2023-05-12T11:07:50.138Z,13.28
2023-05-12T11:10:18.245Z,14.11
2023-05-12T11:12:45.756Z,13.69
2023-05-12T11:15:13.727Z,13.33
2023-05-12T11:17:41.646Z,13.43
2023-05-12T11:20:12.294Z,13.21
2023-05-12T11:22:41.118Z,13.15
2023-05-12T11:25:12.643Z,12.94
2023-05-12T11:27:43.455Z,13.31
2023-05-12T11:30:11.305Z,14.06
2023-05-12T11:32:38.879Z,14.47
2023-05-12T11:35:10.175Z,15.04
2023-05-12T11:37:39.567Z,15.90
2023-05-12T11:40:21.104Z,16.59
2023-05-12T11:42:52.895Z,17.14
2023-05-12T11:45:28.989Z,17.66
2023-05-12T11:48:11.694Z,17.86
2023-05-12T11:50:41.224Z,17.93
2023-05-12T11:53:17.463Z,18.05
2023-05-12T11:56:02.753Z,18.05
2023-05-12T11:58:30.851Z,18.25
2023-05-12T12:01:10.191Z,17.91
2023-05-12T12:03:48.753Z,17.64
2023-05-12T12:06:16.461Z,17.98
2023-05-12T12:09:10.315Z,18.13
2023-05-12T12:11:37.426Z,17.61
2023-05-12T12:14:04.960Z,17.11
2023-05-12T12:16:32.589Z,15.94
2023-05-12T12:18:59.847Z,15.37
2023-05-12T12:21:27.130Z,15.17
2023-05-12T12:23:54.092Z,14.66
2023-05-12T12:26:21.739Z,15.95
2023-05-12T12:28:49.205Z,15.92
2023-05-12T12:31:16.943Z,15.93
2023-05-12T12:33:44.221Z,15.22
2023-05-12T12:36:11.388Z,14.03
2023-05-12T12:38:38.447Z,12.30
2023-05-12T12:41:07.094Z,11.90
2023-05-12T12:43:34.142Z,11.59
2023-05-12T12:46:01.199Z,11.82
2023-05-12T12:48:29.038Z,12.67
2023-05-12T12:50:56.268Z,13.25
2023-05-12T12:53:23.295Z,13.20
2023-05-12T12:55:50.268Z,13.13
2023-05-12T12:58:17.345Z,12.71
2023-05-12T13:00:44.476Z,12.48
2023-05-12T13:03:11.680Z,13.41
2023-05-12T13:05:39.048Z,14.10
2023-05-12T13:08:06.431Z,15.30
2023-05-12T13:10:33.699Z,15.52
2023-05-12T13:13:00.977Z,16.28
2023-05-12T13:15:28.140Z,16.27
2023-05-12T13:17:55.266Z,16.22
2023-05-12T13:20:22.463Z,16.36
2023-05-12T13:22:49.792Z,15.09
2023-05-12T13:25:17.075Z,14.34
2023-05-12T13:27:44.272Z,13.65
2023-05-12T13:30:13.769Z,13.15
2023-05-12T13:32:41.670Z,13.06
2023-05-12T13:35:09.457Z,12.73
2023-05-12T13:37:37.518Z,13.63
2023-05-12T13:40:04.985Z,13.98
2023-05-12T13:42:32.630Z,14.35
2023-05-12T13:44:59.813Z,14.34
2023-05-12T13:47:27.665Z,14.47
2023-05-12T13:49:56.619Z,14.96
2023-05-12T13:52:23.668Z,15.51
2023-05-12T13:54:51.382Z,15.95
2023-05-12T13:57:18.490Z,15.12
2023-05-12T13:59:45.582Z,14.44
2023-05-12T14:02:13.967Z,14.32
2023-05-12T14:04:41.223Z,14.29
2023-05-12T14:07:08.873Z,13.73
2023-05-12T14:09:36.367Z,13.29
2023-05-12T14:12:04.508Z,13.25
2023-05-12T14:14:31.797Z,13.45
2023-05-12T14:16:59.135Z,13.98
2023-05-12T14:19:26.160Z,13.96
2023-05-12T14:21:53.207Z,13.19
2023-05-12T14:24:20.553Z,13.60
2023-05-12T14:26:47.711Z,14.08
2023-05-12T14:29:14.841Z,14.57
2023-05-12T14:31:42.048Z,15.18
2023-05-12T14:34:09.459Z,15.90
2023-05-12T14:36:36.861Z,17.01
2023-05-12T14:39:04.098Z,17.33
2023-05-12T14:41:31.260Z,17.33
2023-05-12T14:43:58.863Z,17.49
2023-05-12T14:46:26.080Z,18.12
2023-05-12T14:48:53.280Z,18.79
2023-05-12T14:51:20.343Z,18.72
2023-05-12T14:53:47.398Z,18.79
2023-05-12T14:56:14.842Z,19.18
2023-05-12T14:58:41.852Z,19.82
2023-05-12T15:01:09.696Z,19.72
2023-05-12T15:03:37.115Z,19.43
2023-05-12T15:06:07.820Z,19.36
2023-05-12T15:08:35.550Z,19.92
2023-05-12T15:11:02.648Z,20.08
2023-05-12T15:13:29.751Z,19.44
2023-05-12T15:15:57.173Z,19.52
2023-05-12T15:18:24.655Z,19.98
2023-05-12T15:20:52.088Z,20.33
2023-05-12T15:23:19.280Z,19.76
2023-05-12T15:25:46.358Z,19.89
2023-05-12T15:28:13.780Z,19.90
2023-05-12T15:30:40.935Z,20.25
2023-05-12T15:33:08.174Z,19.79
2023-05-12T15:35:35.459Z,20.14
2023-05-12T15:38:03.165Z,20.01
2023-05-12T15:40:31.197Z,19.66
2023-05-12T15:42:58.598Z,19.49
2023-05-12T15:45:25.958Z,19.71
2023-05-12T15:47:53.276Z,19.83
2023-05-12T15:50:22.930Z,20.28
2023-05-12T15:52:51.194Z,20.71
2023-05-12T15:55:18.877Z,20.98
2023-05-12T15:57:47.871Z,21.67
2023-05-12T16:00:17.524Z,21.53
2023-05-12T16:02:44.728Z,21.89
2023-05-12T16:05:12.274Z,22.04
2023-05-12T16:07:39.687Z,22.52
2023-05-12T16:10:07.258Z,22.80
2023-05-12T16:12:34.653Z,22.47
2023-05-12T16:15:02.432Z,22.32
2023-05-12T16:17:34.331Z,22.63
2023-05-12T16:20:02.153Z,22.80
2023-05-12T16:22:32.042Z,23.12
2023-05-12T16:24:59.261Z,23.89
2023-05-12T16:27:27.011Z,24.26
2023-05-12T16:29:54.294Z,24.30
2023-05-12T16:32:21.487Z,24.14
2023-05-12T16:34:48.925Z,25.30
2023-05-12T16:37:16.004Z,25.84
2023-05-12T16:39:43.306Z,26.34
2023-05-12T16:42:10.780Z,26.51
2023-05-12T16:44:37.800Z,26.10
2023-05-12T16:47:05.865Z,26.05
2023-05-12T16:49:33.064Z,26.18
2023-05-12T16:52:00.201Z,26.71
2023-05-12T16:54:27.294Z,27.29
2023-05-12T16:56:56.577Z,27.10
2023-05-12T16:59:23.694Z,27.34
2023-05-12T17:01:51.025Z,27.23
2023-05-12T17:04:18.201Z,27.04
2023-05-12T17:06:45.269Z,27.84
2023-05-12T17:09:12.386Z,27.88
2023-05-12T17:11:39.404Z,29.41
2023-05-12T17:14:06.477Z,29.50
2023-05-12T17:16:33.586Z,29.07
2023-05-12T17:21:31.532Z,29.67
2023-05-12T17:23:58.615Z,29.65
2023-05-12T17:26:27.841Z,28.91
2023-05-12T17:28:55.643Z,29.60
2023-05-12T17:31:22.947Z,28.35
2023-05-12T17:33:50.107Z,27.79
2023-05-12T17:36:18.858Z,26.98
2023-05-12T17:38:46.432Z,26.11
2023-05-12T17:41:13.731Z,26.69
2023-05-12T17:43:41.568Z,26.19
2023-05-12T17:46:09.336Z,25.90
2023-05-12T17:48:36.763Z,25.24
2023-05-12T17:51:04.763Z,24.90
2023-05-12T17:53:32.845Z,24.59
2023-05-12T17:56:00.706Z,24.27
2023-05-12T17:58:28.011Z,24.44
2023-05-12T18:00:55.187Z,24.82
2023-05-12T18:03:27.107Z,24.59
2023-05-12T18:05:57.174Z,23.90
2023-05-12T18:08:24.070Z,23.59
2023-05-12T18:10:51.297Z,23.06
2023-05-12T18:13:18.446Z,23.28
2023-05-12T18:15:45.539Z,22.69
2023-05-12T18:18:14.617Z,22.83
2023-05-12T18:20:42.371Z,22.62
2023-05-12T18:23:09.530Z,22.58
2023-05-12T18:25:36.789Z,22.87
2023-05-12T18:28:03.982Z,22.98
2023-05-12T18:30:31.127Z,23.64
2023-05-12T18:32:58.233Z,23.83
2023-05-12T18:35:27.147Z,23.51
2023-05-12T18:37:54.659Z,23.71
2023-05-12T18:40:21.966Z,23.53
2023-05-12T18:42:49.230Z,23.70
2023-05-12T18:45:16.475Z,23.94
2023-05-12T18:47:43.892Z,24.36
2023-05-12T18:50:11.431Z,24.01
2023-05-12T18:52:38.518Z,23.96
2023-05-12T18:55:06.340Z,23.53
2023-05-12T18:57:34.066Z,24.13
2023-05-12T19:00:01.419Z,23.97
2023-05-12T19:02:35.571Z,24.23
2023-05-12T19:05:02.985Z,23.98
2023-05-12T19:07:32.410Z,23.63
2023-05-12T19:10:00.568Z,23.84
2023-05-12T19:12:27.719Z,24.45
2023-05-12T19:14:54.722Z,24.21
2023-05-12T19:17:22.257Z,23.42
2023-05-12T19:19:50.734Z,23.72
2023-05-12T19:22:18.065Z,24.04
2023-05-12T19:24:45.290Z,24.52
2023-05-12T19:27:12.405Z,24.52
2023-05-12T19:29:39.604Z,24.45
2023-05-12T19:32:07.212Z,25.04
2023-05-12T19:34:34.673Z,24.94
2023-05-12T19:37:02.037Z,24.95
2023-05-12T19:39:29.492Z,24.88
2023-05-12T19:41:56.566Z,24.37
2023-05-12T19:44:23.854Z,23.20
2023-05-12T19:46:51.787Z,22.38
2023-05-12T19:49:18.970Z,23.00
2023-05-12T19:51:46.290Z,22.41
2023-05-12T19:54:13.619Z,22.28
2023-05-12T19:56:42.951Z,22.41
2023-05-12T19:59:10.002Z,23.61
2023-05-12T20:01:37.091Z,23.63
2023-05-12T20:04:04.286Z,24.11
2023-05-12T20:06:31.318Z,23.52
2023-05-12T20:08:58.443Z,23.69
2023-05-12T20:11:25.774Z,23.76
2023-05-12T20:13:52.873Z,23.81
2023-05-12T20:16:19.937Z,24.35
2023-05-12T20:18:47.041Z,24.30
2023-05-12T20:21:14.088Z,24.50
2023-05-12T20:23:41.806Z,25.47
2023-05-12T20:26:10.117Z,24.65
2023-05-12T20:28:37.160Z,25.22
2023-05-12T20:31:04.290Z,25.57
2023-05-12T20:33:32.436Z,26.51
2023-05-12T20:35:59.339Z,27.66
2023-05-12T20:38:26.871Z,28.49
2023-05-12T20:40:54.199Z,27.79
2023-05-12T20:43:21.675Z,27.68
2023-05-12T20:45:48.961Z,27.41
2023-05-12T20:48:16.070Z,28.29
2023-05-12T20:50:43.991Z,28.76
2023-05-12T20:53:11.146Z,29.15
2023-05-12T20:55:43.110Z,29.77
2023-05-12T20:58:10.381Z,30.75
2023-05-12T21:00:37.401Z,30.70
2023-05-12T21:03:05.701Z,30.48
2023-05-12T21:05:33.407Z,31.00
2023-05-12T21:08:00.428Z,31.38
2023-05-12T21:10:27.451Z,32.01
2023-05-12T21:12:54.452Z,29.92
2023-05-12T21:15:21.519Z,30.78
2023-05-12T21:17:48.725Z,31.75
2023-05-12T21:20:15.750Z,31.71
2023-05-12T21:22:42.937Z,31.40
2023-05-12T21:25:10.460Z,31.52
2023-05-12T21:27:41.435Z,31.32
2023-05-12T21:30:10.281Z,30.94
2023-05-12T21:32:37.607Z,32.40
2023-05-12T21:35:05.083Z,32.52
2023-05-12T21:37:33.297Z,32.40
2023-05-12T21:40:00.611Z,32.64
2023-05-12T21:42:27.950Z,33.51
2023-05-12T21:44:55.210Z,33.78
2023-05-12T21:47:22.439Z,34.62
2023-05-12T21:49:55.113Z,34.68
2023-05-12T21:52:22.807Z,34.91
2023-05-12T21:54:49.941Z,35.29
2023-05-12T21:57:17.188Z,35.01
2023-05-12T21:59:44.862Z,36.16
2023-05-12T22:02:12.113Z,35.92
2023-05-12T22:04:39.425Z,35.75
2023-05-12T22:07:06.566Z,36.21
2023-05-12T22:09:33.740Z,35.38
2023-05-12T22:12:00.786Z,35.57
2023-05-12T22:14:27.784Z,35.35
2023-05-12T22:16:56.064Z,36.55
2023-05-12T22:19:23.776Z,36.32
2023-05-12T22:21:51.776Z,36.98
2023-05-12T22:24:18.891Z,37.33
2023-05-12T22:26:46.141Z,37.35
2023-05-12T22:29:13.191Z,37.28
2023-05-12T22:31:40.462Z,38.87
2023-05-12T22:34:07.904Z,38.28
2023-05-12T22:36:35.090Z,38.05
2023-05-12T22:39:02.400Z,38.52
2023-05-12T22:41:29.746Z,38.23
2023-05-12T22:43:57.644Z,38.78
2023-05-12T22:46:25.003Z,38.71
2023-05-12T22:48:52.800Z,38.37
2023-05-12T22:51:20.143Z,39.25
2023-05-12T22:53:47.238Z,40.29
2023-05-12T22:56:14.592Z,39.91
2023-05-12T22:58:41.735Z,40.06
2023-05-12T23:01:08.857Z,40.59
2023-05-12T23:03:36.326Z,40.48
2023-05-12T23:06:03.460Z,40.86
2023-05-12T23:08:30.616Z,41.05
2023-05-12T23:10:57.677Z,40.88
2023-05-12T23:13:24.948Z,41.72
2023-05-12T23:15:52.040Z,41.28
2023-05-12T23:18:37.585Z,41.82
2023-05-12T23:21:04.607Z,41.59
2023-05-12T23:23:33.248Z,41.95
2023-05-12T23:26:00.277Z,41.66
2023-05-12T23:28:27.354Z,41.85
2023-05-12T23:30:54.513Z,42.10
2023-05-12T23:33:21.764Z,41.80
2023-05-12T23:35:49.077Z,41.96
2023-05-12T23:38:16.466Z,42.60
2023-05-12T23:40:43.602Z,42.66
2023-05-12T23:43:10.633Z,42.96
2023-05-12T23:45:37.911Z,42.75
2023-05-12T23:48:05.314Z,43.09
2023-05-12T23:50:32.482Z,43.14
2023-05-12T23:52:59.489Z,43.12
2023-05-12T23:55:26.633Z,43.07
2023-05-12T23:57:53.724Z,42.67
